createdAt,value
2022-11-14T00:02:44.020Z,14.03
2022-11-14T00:05:31.826Z,14.50
2022-11-14T00:08:21.525Z,13.87
2022-11-14T00:11:09.546Z,14.57
2022-11-14T00:13:57.336Z,15.23
2022-11-14T00:16:46.339Z,14.73
2022-11-14T00:19:34.135Z,14.03
2022-11-14T00:22:21.895Z,16.63
2022-11-14T00:25:11.026Z,17.07
2022-11-14T00:27:59.558Z,14.87
2022-11-14T00:30:49.030Z,14.07
2022-11-14T00:33:38.736Z,15.90
2022-11-14T00:36:26.590Z,14.00
2022-11-14T00:39:15.207Z,15.57
2022-11-14T00:42:02.804Z,13.90
2022-11-14T00:44:50.360Z,14.83
2022-11-14T00:47:37.902Z,16.27
2022-11-14T00:50:26.771Z,15.97
2022-11-14T00:53:15.128Z,15.70
2022-11-14T00:56:02.792Z,15.80
2022-11-14T00:58:50.516Z,15.67
2022-11-14T01:01:38.070Z,14.73
2022-11-14T01:04:25.789Z,15.80
2022-11-14T01:07:14.892Z,15.00
2022-11-14T01:10:02.787Z,13.43
2022-11-14T01:12:50.751Z,15.67
2022-11-14T01:15:41.142Z,15.73
2022-11-14T01:18:29.447Z,14.30
2022-11-14T01:21:17.628Z,15.47
2022-11-14T01:24:07.958Z,14.10
2022-11-14T01:26:56.981Z,15.47
2022-11-14T01:29:44.856Z,14.63
2022-11-14T01:32:32.516Z,15.27
2022-11-14T01:35:20.176Z,15.63
2022-11-14T01:38:08.396Z,16.63
2022-11-14T01:40:57.350Z,15.57
2022-11-14T01:43:45.382Z,15.60
2022-11-14T01:46:37.631Z,16.77
2022-11-14T01:49:32.686Z,16.27
2022-11-14T01:52:22.887Z,15.43
2022-11-14T01:55:11.856Z,15.03
2022-11-14T01:58:01.678Z,15.50
2022-11-14T02:00:49.663Z,15.87
2022-11-14T02:03:40.950Z,16.10
2022-11-14T02:06:32.242Z,15.23
2022-11-14T02:09:19.854Z,15.73
2022-11-14T02:12:10.915Z,15.83
2022-11-14T02:15:01.601Z,15.60
2022-11-14T02:17:49.422Z,15.00
2022-11-14T02:20:43.144Z,16.17
2022-11-14T02:23:33.095Z,15.50
2022-11-14T02:26:22.748Z,16.67
2022-11-14T02:29:12.503Z,15.40
2022-11-14T02:32:00.065Z,16.10
2022-11-14T02:34:47.718Z,16.17
2022-11-14T02:37:36.902Z,15.67
2022-11-14T02:40:24.736Z,16.47
2022-11-14T02:43:12.581Z,18.53
2022-11-14T02:46:05.405Z,16.33
2022-11-14T02:48:53.537Z,16.90
2022-11-14T02:51:41.849Z,17.43
2022-11-14T02:54:30.795Z,15.70
2022-11-14T02:57:18.630Z,15.53
2022-11-14T03:00:13.347Z,16.67
2022-11-14T03:03:02.154Z,16.83
2022-11-14T03:05:52.108Z,14.40
2022-11-14T03:08:39.971Z,16.10
2022-11-14T03:11:28.994Z,15.97
2022-11-14T03:14:16.826Z,15.40
2022-11-14T03:17:04.476Z,16.00
2022-11-14T03:19:52.850Z,15.30
2022-11-14T03:22:40.394Z,14.40
2022-11-14T03:25:27.995Z,18.10
2022-11-14T03:28:16.934Z,16.07
2022-11-14T03:31:05.535Z,18.03
2022-11-14T03:33:53.120Z,16.47
2022-11-14T03:36:40.670Z,16.00
2022-11-14T03:39:28.734Z,15.83
2022-11-14T03:42:16.420Z,16.83
2022-11-14T03:45:06.064Z,14.63
2022-11-14T03:47:56.333Z,13.40
2022-11-14T03:50:45.644Z,16.57
2022-11-14T03:53:33.499Z,15.60
2022-11-14T03:56:21.230Z,17.10
2022-11-14T03:59:08.840Z,17.33
2022-11-14T04:01:57.758Z,17.47
2022-11-14T04:04:45.327Z,16.93
2022-11-14T04:07:32.972Z,15.47
2022-11-14T04:10:21.080Z,17.53
2022-11-14T04:13:09.390Z,16.70
2022-11-14T04:15:58.414Z,15.90
2022-11-14T04:18:47.370Z,15.90
2022-11-14T04:21:35.218Z,16.97
2022-11-14T04:24:23.102Z,17.67
2022-11-14T04:27:10.877Z,16.33
2022-11-14T04:29:58.648Z,15.97
2022-11-14T04:32:48.357Z,15.40
2022-11-14T04:35:37.342Z,16.53
2022-11-14T04:38:25.196Z,16.17
2022-11-14T04:41:13.368Z,15.23
2022-11-14T04:44:01.174Z,16.00
2022-11-14T04:46:48.872Z,15.90
2022-11-14T04:49:37.075Z,15.03
2022-11-14T04:52:25.991Z,15.97
2022-11-14T04:55:13.584Z,16.10
2022-11-14T04:58:02.519Z,14.57
2022-11-14T05:00:49.983Z,15.93
2022-11-14T05:03:38.170Z,17.07
2022-11-14T05:06:25.671Z,16.70
2022-11-14T05:09:14.664Z,17.43
2022-11-14T05:12:02.373Z,15.47
2022-11-14T05:14:49.869Z,16.53
2022-11-14T05:17:37.331Z,16.03
2022-11-14T05:20:24.870Z,16.80
2022-11-14T05:23:20.606Z,14.33
2022-11-14T05:26:11.746Z,16.13
2022-11-14T05:28:59.362Z,16.53
2022-11-14T05:31:47.136Z,17.47
2022-11-14T05:34:34.673Z,16.50
2022-11-14T05:37:22.327Z,16.07
2022-11-14T05:40:10.972Z,16.90
2022-11-14T05:43:00.039Z,16.93
2022-11-14T05:45:47.893Z,16.37
2022-11-14T05:48:35.564Z,16.40
2022-11-14T05:51:23.543Z,16.33
2022-11-14T05:54:11.023Z,16.97
2022-11-14T05:56:58.439Z,15.47
2022-11-14T05:59:47.300Z,17.93
2022-11-14T06:02:34.953Z,16.13
2022-11-14T06:05:22.592Z,15.87
2022-11-14T06:08:10.272Z,15.40
2022-11-14T06:11:02.353Z,14.80
2022-11-14T06:13:50.370Z,15.67
2022-11-14T06:16:39.197Z,16.70
2022-11-14T06:19:27.097Z,16.70
2022-11-14T06:22:14.535Z,18.37
2022-11-14T06:25:01.962Z,16.80
2022-11-14T06:27:49.577Z,17.20
2022-11-14T06:30:38.300Z,16.07
2022-11-14T06:33:27.360Z,16.97
2022-11-14T06:36:15.751Z,16.90
2022-11-14T06:39:03.316Z,16.13
2022-11-14T06:41:50.955Z,17.00
2022-11-14T06:44:38.413Z,16.57
2022-11-14T06:47:25.920Z,17.40
2022-11-14T06:50:15.009Z,16.63
2022-11-14T06:53:02.547Z,16.57
2022-11-14T06:55:57.630Z,16.10
2022-11-14T06:58:46.992Z,16.93
2022-11-14T07:01:34.532Z,16.20
2022-11-14T07:04:22.000Z,16.40
2022-11-14T07:07:10.912Z,18.03
2022-11-14T07:09:58.859Z,17.00
2022-11-14T07:12:46.623Z,18.63
2022-11-14T07:15:34.081Z,17.57
2022-11-14T07:18:22.695Z,18.53
2022-11-14T07:21:13.180Z,17.13
2022-11-14T07:24:02.077Z,17.20
2022-11-14T07:26:49.968Z,17.00
2022-11-14T07:29:37.589Z,17.70
2022-11-14T07:32:25.388Z,17.23
2022-11-14T07:35:12.863Z,19.33
2022-11-14T07:38:04.766Z,17.87
2022-11-14T07:40:59.912Z,17.00
2022-11-14T07:43:47.976Z,17.70
2022-11-14T07:46:35.688Z,17.53
2022-11-14T07:49:23.128Z,18.40
2022-11-14T07:52:10.684Z,18.83
2022-11-14T07:54:58.312Z,18.83
2022-11-14T07:57:49.597Z,19.30
2022-11-14T08:00:37.385Z,17.23
2022-11-14T08:03:24.869Z,15.90
2022-11-14T08:06:14.426Z,17.87
2022-11-14T08:09:02.340Z,17.40
2022-11-14T08:11:49.913Z,18.47
2022-11-14T08:14:38.768Z,18.23
2022-11-14T08:17:26.879Z,20.77
2022-11-14T08:20:14.783Z,19.20
2022-11-14T08:23:07.083Z,17.27
2022-11-14T08:25:55.052Z,16.57
2022-11-14T08:28:42.953Z,20.50
2022-11-14T08:31:32.353Z,18.57
2022-11-14T08:34:20.865Z,17.13
2022-11-14T08:37:08.494Z,17.93
2022-11-14T08:39:55.979Z,18.43
2022-11-14T08:42:43.610Z,16.43
2022-11-14T08:45:31.590Z,18.10
2022-11-14T08:48:20.390Z,19.07
2022-11-14T08:51:08.815Z,18.23
2022-11-14T08:53:56.601Z,17.37
2022-11-14T08:56:44.125Z,16.43
2022-11-14T08:59:31.652Z,18.20
2022-11-14T09:02:19.186Z,17.20
2022-11-14T09:05:09.553Z,18.07
2022-11-14T09:07:57.203Z,17.77
2022-11-14T09:10:45.158Z,17.27
2022-11-14T09:13:34.742Z,18.10
2022-11-14T09:16:22.118Z,18.20
2022-11-14T09:19:09.743Z,17.27
2022-11-14T09:21:58.905Z,16.93
2022-11-14T09:24:49.335Z,17.80
2022-11-14T09:27:36.901Z,18.67
2022-11-14T09:30:24.726Z,17.07
2022-11-14T09:33:12.530Z,16.73
2022-11-14T09:36:00.228Z,17.90
2022-11-14T09:38:50.006Z,18.17
2022-11-14T09:41:54.196Z,17.73
2022-11-14T09:44:55.758Z,16.67
2022-11-14T09:47:45.867Z,17.37
2022-11-14T09:50:38.048Z,16.73
2022-11-14T09:53:33.710Z,17.23
2022-11-14T09:56:26.218Z,17.13
2022-11-14T09:59:15.161Z,17.80
2022-11-14T10:02:11.917Z,18.17
2022-11-14T10:05:12.140Z,18.00
2022-11-14T10:08:14.410Z,17.93
2022-11-14T10:11:09.005Z,17.50
2022-11-14T10:14:33.327Z,16.93
2022-11-14T10:17:38.307Z,17.73
2022-11-14T10:20:32.375Z,16.40
2022-11-14T10:23:35.313Z,16.40
2022-11-14T10:26:30.977Z,17.27
2022-11-14T10:29:59.413Z,18.73
2022-11-14T10:33:06.146Z,16.97
2022-11-14T10:36:01.766Z,16.50
2022-11-14T10:38:55.235Z,18.73
2022-11-14T10:42:04.540Z,15.63
2022-11-14T10:45:02.191Z,17.13
2022-11-14T10:47:53.479Z,16.50
2022-11-14T10:50:49.954Z,17.67
2022-11-14T10:53:51.211Z,16.00
2022-11-14T10:56:47.933Z,15.80
2022-11-14T10:59:36.346Z,16.00
2022-11-14T11:02:25.255Z,16.90
2022-11-14T11:05:17.319Z,15.63
2022-11-14T11:08:42.485Z,17.47
2022-11-14T11:11:31.120Z,15.83
2022-11-14T11:14:20.171Z,16.07
2022-11-14T11:17:20.571Z,15.40
2022-11-14T11:20:30.981Z,15.60
2022-11-14T11:23:23.017Z,15.87
2022-11-14T11:26:19.354Z,16.03
2022-11-14T11:29:16.102Z,16.87
2022-11-14T11:32:03.830Z,14.53
2022-11-14T11:34:53.441Z,16.00
2022-11-14T11:37:54.530Z,14.60
2022-11-14T11:40:44.254Z,15.77
2022-11-14T11:43:40.004Z,15.93
2022-11-14T11:46:34.660Z,14.67
2022-11-14T11:49:35.703Z,14.23
2022-11-14T11:52:32.494Z,15.33
2022-11-14T11:55:26.670Z,15.87
2022-11-14T11:58:22.476Z,14.23
2022-11-14T12:01:12.842Z,15.17
2022-11-14T12:04:04.055Z,16.33
2022-11-14T12:06:59.860Z,14.80
2022-11-14T12:10:09.832Z,14.73
2022-11-14T12:13:35.490Z,15.23
2022-11-14T12:16:55.061Z,15.17
2022-11-14T12:20:03.002Z,15.77
2022-11-14T12:23:11.679Z,15.63
2022-11-14T12:26:14.638Z,14.73
2022-11-14T12:29:25.179Z,14.77
2022-11-14T12:32:16.798Z,14.70
2022-11-14T12:35:09.005Z,14.40
2022-11-14T12:37:59.116Z,14.73
2022-11-14T12:40:53.454Z,16.17
2022-11-14T12:43:44.131Z,15.63
2022-11-14T12:47:12.598Z,15.80
2022-11-14T12:50:35.091Z,15.43
2022-11-14T12:53:45.428Z,14.60
2022-11-14T12:57:05.100Z,13.43
2022-11-14T13:00:02.934Z,14.33
2022-11-14T13:03:10.891Z,16.00
2022-11-14T13:06:04.084Z,15.40
2022-11-14T13:09:17.928Z,15.70
2022-11-14T13:12:49.480Z,15.40
2022-11-14T13:16:07.596Z,15.50
2022-11-14T13:19:19.075Z,15.00
2022-11-14T13:22:39.906Z,15.73
2022-11-14T13:25:28.016Z,15.43
2022-11-14T13:28:48.551Z,15.40
2022-11-14T13:31:49.002Z,16.40
2022-11-14T13:34:46.183Z,14.27
2022-11-14T13:37:54.142Z,14.67
2022-11-14T13:40:50.413Z,12.70
2022-11-14T13:43:53.506Z,13.53
2022-11-14T13:47:04.657Z,14.17
2022-11-14T13:50:04.751Z,12.97
2022-11-14T13:52:53.645Z,13.60
2022-11-14T13:56:01.961Z,13.80
2022-11-14T13:59:26.901Z,13.87
2022-11-14T14:02:39.021Z,13.27
2022-11-14T14:05:36.541Z,14.17
2022-11-14T14:08:41.289Z,13.87
2022-11-14T14:11:44.690Z,14.05
2022-11-14T14:14:53.656Z,14.60
2022-11-14T14:17:54.951Z,13.43
2022-11-14T14:20:49.331Z,14.97
2022-11-14T14:23:46.349Z,14.67
2022-11-14T14:26:55.388Z,15.03
2022-11-14T14:29:52.570Z,14.13
2022-11-14T14:32:40.302Z,14.43
2022-11-14T14:35:29.883Z,14.00
2022-11-14T14:38:26.591Z,14.30
2022-11-14T14:41:15.938Z,13.83
2022-11-14T14:44:03.867Z,14.67
2022-11-14T14:46:52.450Z,14.57
2022-11-14T14:49:41.348Z,13.47
2022-11-14T14:52:31.664Z,14.83
2022-11-14T14:55:26.338Z,15.67
2022-11-14T14:58:25.955Z,13.97
2022-11-14T15:01:16.066Z,14.23
2022-11-14T15:04:07.664Z,14.50
2022-11-14T15:06:57.291Z,15.20
2022-11-14T15:09:54.264Z,15.60
2022-11-14T15:12:44.216Z,14.37
2022-11-14T15:15:32.669Z,14.83
2022-11-14T15:18:26.100Z,15.60
2022-11-14T15:21:17.955Z,16.10
2022-11-14T15:24:15.914Z,14.93
2022-11-14T15:27:06.526Z,16.60
2022-11-14T15:29:59.145Z,14.70
2022-11-14T15:32:51.122Z,14.57
2022-11-14T15:35:40.601Z,15.23
2022-11-14T15:38:43.607Z,14.80
2022-11-14T15:41:32.784Z,16.13
2022-11-14T15:44:34.181Z,16.70
2022-11-14T15:47:26.111Z,16.03
2022-11-14T15:50:31.169Z,16.03
2022-11-14T15:53:24.558Z,16.00
2022-11-14T15:56:13.825Z,15.70
2022-11-14T15:59:01.241Z,16.90
2022-11-14T16:01:53.263Z,16.13
2022-11-14T16:04:47.287Z,17.97
2022-11-14T16:07:35.477Z,18.63
2022-11-14T16:10:24.639Z,16.67
2022-11-14T16:13:12.407Z,17.33
2022-11-14T16:16:00.363Z,16.63
2022-11-14T16:18:48.072Z,18.97
2022-11-14T16:21:38.954Z,16.70
2022-11-14T16:24:31.114Z,17.97
2022-11-14T16:27:21.216Z,18.07
2022-11-14T16:30:09.915Z,16.93
2022-11-14T16:32:57.524Z,18.30
2022-11-14T16:35:45.672Z,17.77
2022-11-14T16:38:34.853Z,18.07
2022-11-14T16:41:22.399Z,17.40
2022-11-14T16:44:16.529Z,17.53
2022-11-14T16:47:04.539Z,20.17
2022-11-14T16:49:52.372Z,16.60
2022-11-14T16:52:40.638Z,17.90
2022-11-14T16:55:30.026Z,17.40
2022-11-14T16:58:17.567Z,17.67
2022-11-14T17:01:10.084Z,18.43
2022-11-14T17:04:01.014Z,16.37
2022-11-14T17:06:49.036Z,17.80
2022-11-14T17:09:36.777Z,18.40
2022-11-14T17:12:28.957Z,18.20
2022-11-14T17:15:16.856Z,16.90
2022-11-14T17:18:05.338Z,17.53
2022-11-14T17:20:53.444Z,18.70
2022-11-14T17:23:41.333Z,16.83
2022-11-14T17:26:29.665Z,17.97
2022-11-14T17:29:18.406Z,18.03
2022-11-14T17:32:06.192Z,18.30
2022-11-14T17:34:53.802Z,19.03
2022-11-14T17:37:41.182Z,17.30
2022-11-14T17:40:28.919Z,15.80
2022-11-14T17:43:18.091Z,17.07
2022-11-14T17:46:14.236Z,19.17
2022-11-14T17:49:04.239Z,18.57
2022-11-14T17:51:52.115Z,17.43
2022-11-14T17:54:40.048Z,19.27
2022-11-14T17:57:28.132Z,19.47
2022-11-14T18:00:17.338Z,17.07
2022-11-14T18:03:06.881Z,17.40
2022-11-14T18:05:56.433Z,18.83
2022-11-14T18:08:44.559Z,16.90
2022-11-14T18:11:33.235Z,16.73
2022-11-14T18:14:21.106Z,16.53
2022-11-14T18:17:13.203Z,17.97
2022-11-14T18:20:02.598Z,17.23
2022-11-14T18:22:50.576Z,18.93
2022-11-14T18:25:38.020Z,18.17
2022-11-14T18:28:25.521Z,18.03
2022-11-14T18:31:13.858Z,17.83
2022-11-14T18:34:02.725Z,16.87
2022-11-14T18:36:51.635Z,18.40
2022-11-14T18:39:39.334Z,17.60
2022-11-14T18:42:26.837Z,16.27
2022-11-14T18:45:14.440Z,19.60
2022-11-14T18:48:01.994Z,18.17
2022-11-14T18:50:49.545Z,16.33
2022-11-14T18:53:38.681Z,16.67
2022-11-14T18:56:27.602Z,17.40
2022-11-14T18:59:15.197Z,16.30
2022-11-14T19:02:02.973Z,17.40
2022-11-14T19:04:50.652Z,17.83
2022-11-14T19:07:38.793Z,17.77
2022-11-14T19:10:27.667Z,18.00
2022-11-14T19:13:15.726Z,16.07
2022-11-14T19:16:03.946Z,17.80
2022-11-14T19:18:51.624Z,17.60
2022-11-14T19:21:40.275Z,17.03
2022-11-14T19:24:27.937Z,16.13
2022-11-14T19:27:17.153Z,18.00
2022-11-14T19:30:05.566Z,17.73
2022-11-14T19:32:53.350Z,18.43
2022-11-14T19:35:41.382Z,19.03
2022-11-14T19:38:29.112Z,18.83
2022-11-14T19:41:20.179Z,18.33
2022-11-14T19:44:10.248Z,19.07
2022-11-14T19:46:58.174Z,17.67
2022-11-14T19:49:45.946Z,17.77
2022-11-14T19:52:33.772Z,18.20
2022-11-14T19:55:21.310Z,17.63
2022-11-14T19:58:08.928Z,18.37
2022-11-14T20:01:03.467Z,17.83
2022-11-14T20:03:56.014Z,18.57
2022-11-14T20:06:44.044Z,18.17
2022-11-14T20:09:34.841Z,17.63
2022-11-14T20:12:22.360Z,16.57
2022-11-14T20:15:11.353Z,15.97
2022-11-14T20:18:00.679Z,17.43
2022-11-14T20:20:49.292Z,16.73
2022-11-14T20:23:37.541Z,18.13
2022-11-14T20:26:25.594Z,16.60
2022-11-14T20:29:13.665Z,18.73
2022-11-14T20:32:03.114Z,17.77
2022-11-14T20:34:52.206Z,17.80
2022-11-14T20:37:39.794Z,16.83
2022-11-14T20:40:27.970Z,17.70
2022-11-14T20:43:16.211Z,17.27
2022-11-14T20:46:06.834Z,17.83
2022-11-14T20:48:54.948Z,17.90
2022-11-14T20:51:44.191Z,17.53
2022-11-14T20:54:31.678Z,18.17
2022-11-14T20:57:19.287Z,17.50
2022-11-14T21:00:09.053Z,17.13
2022-11-14T21:02:56.968Z,17.17
2022-11-14T21:05:44.951Z,17.87
2022-11-14T21:08:36.351Z,17.63
2022-11-14T21:11:23.829Z,17.57
2022-11-14T21:14:12.847Z,16.67
2022-11-14T21:17:00.850Z,17.53
2022-11-14T21:19:48.570Z,16.50
2022-11-14T21:22:37.329Z,16.77
2022-11-14T21:25:26.778Z,18.00
2022-11-14T21:28:14.686Z,17.87
2022-11-14T21:31:03.588Z,17.43
2022-11-14T21:33:53.710Z,17.40
2022-11-14T21:36:46.268Z,18.33
2022-11-14T21:39:34.481Z,17.47
2022-11-14T21:42:25.095Z,16.77
2022-11-14T21:45:13.172Z,17.83
2022-11-14T21:48:00.964Z,18.13
2022-11-14T21:50:48.733Z,16.70
2022-11-14T21:53:36.835Z,17.37
2022-11-14T21:56:26.245Z,17.23
2022-11-14T21:59:21.169Z,17.23
2022-11-14T22:02:30.386Z,17.50
2022-11-14T22:05:18.497Z,16.00
2022-11-14T22:08:06.610Z,18.50
2022-11-14T22:10:54.035Z,18.13
2022-11-14T22:13:41.779Z,18.27
2022-11-14T22:16:30.887Z,15.83
2022-11-14T22:19:18.946Z,17.57
2022-11-14T22:22:06.857Z,16.30
2022-11-14T22:24:54.340Z,17.43
2022-11-14T22:27:41.988Z,17.23
2022-11-14T22:30:29.443Z,16.43
2022-11-14T22:33:18.296Z,17.73
2022-11-14T22:36:08.324Z,17.17
2022-11-14T22:38:57.368Z,16.77
2022-11-14T22:41:45.366Z,17.10
2022-11-14T22:44:33.171Z,16.33
2022-11-14T22:47:21.262Z,16.43
2022-11-14T22:50:11.153Z,16.63
2022-11-14T22:52:58.743Z,17.10
2022-11-14T22:55:50.257Z,17.67
2022-11-14T22:58:41.092Z,17.27
2022-11-14T23:01:31.501Z,16.27
2022-11-14T23:04:19.247Z,17.17
2022-11-14T23:07:09.280Z,17.13
2022-11-14T23:09:56.850Z,16.17
2022-11-14T23:12:44.421Z,16.87
2022-11-14T23:15:32.161Z,17.17
2022-11-14T23:18:19.956Z,17.50
2022-11-14T23:21:08.365Z,17.20
2022-11-14T23:23:58.392Z,17.63
2022-11-14T23:26:46.434Z,16.03
2022-11-14T23:29:34.158Z,16.33
2022-11-14T23:32:21.644Z,16.70
2022-11-14T23:35:09.715Z,17.97
2022-11-14T23:37:57.565Z,18.07
2022-11-14T23:40:52.255Z,18.20
2022-11-14T23:43:39.721Z,17.13
2022-11-14T23:46:27.384Z,16.40
2022-11-14T23:49:15.102Z,17.73
2022-11-14T23:52:02.676Z,16.37
2022-11-14T23:54:50.404Z,16.70
2022-11-14T23:57:39.260Z,16.90
